Time;durP1;ratioP1;P1;durP2;ratioP2;P2;SDS_P1;SDS_P2;PMS_P1;PMS_P2;Temp;Humidity;BMP_temperature;BMP_pressure;BME280_temperature;BME280_humidity;BME280_pressure;Samples;Min_cycle;Max_cycle;Signal;HPM_P1;HPM_P2
2023/05/14 00:00:59;;;;;;;2.85;1.92;;;;;;;13.72;100.00;101161.94;5037002;28;20041;-77
2023/05/14 00:03:27;;;;;;;3.63;1.95;;;;;;;13.69;100.00;101158.72;5040479;28;20029;-77
2023/05/14 00:05:55;;;;;;;6.38;3.45;;;;;;;13.72;100.00;101159.28;5052988;28;20108;-78
2023/05/14 00:08:22;;;;;;;3.45;2.47;;;;;;;13.69;100.00;101161.38;5027412;28;20420;-77
2023/05/14 00:10:51;;;;;;;4.72;2.22;;;;;;;13.66;100.00;101157.22;5007391;28;20037;-77
2023/05/14 00:13:18;;;;;;;3.95;2.10;;;;;;;13.56;100.00;101156.41;5038063;28;20043;-77
2023/05/14 00:15:46;;;;;;;3.67;1.95;;;;;;;13.46;100.00;101146.63;5040830;28;20044;-77
2023/05/14 00:18:14;;;;;;;4.03;2.17;;;;;;;13.43;100.00;101143.41;5035713;28;20366;-77
2023/05/14 00:20:41;;;;;;;5.95;2.30;;;;;;;13.39;100.00;101140.22;5028060;28;20059;-77
2023/05/14 00:23:10;;;;;;;3.30;2.03;;;;;;;13.36;100.00;101133.38;5026034;28;20037;-77
2023/05/14 00:25:37;;;;;;;6.88;2.33;;;;;;;13.39;100.00;101133.09;5024537;28;20575;-77
2023/05/14 00:28:06;;;;;;;4.57;2.20;;;;;;;13.39;100.00;101133.09;5040435;28;20119;-77
2023/05/14 00:30:33;;;;;;;2.72;1.83;;;;;;;13.40;100.00;101132.13;5045664;28;20107;-78
2023/05/14 00:33:02;;;;;;;2.92;2.08;;;;;;;13.38;100.00;101126.13;5037666;28;20287;-77
2023/05/14 00:35:29;;;;;;;5.55;1.98;;;;;;;13.43;100.00;101125.66;5037916;28;20083;-77
2023/05/14 00:37:58;;;;;;;5.47;2.58;;;;;;;13.41;100.00;101119.66;5042124;28;20074;-78
2023/05/14 00:40:26;;;;;;;2.17;1.98;;;;;;;13.46;100.00;101116.56;5041865;28;20712;-77
2023/05/14 00:42:56;;;;;;;5.15;2.30;;;;;;;13.40;100.00;101118.00;5038634;28;20029;-77
2023/05/14 00:45:24;;;;;;;5.00;2.50;;;;;;;13.36;100.00;101121.94;5039192;28;20107;-77
2023/05/14 00:47:53;;;;;;;6.30;2.70;;;;;;;13.39;100.00;101116.34;5042625;28;20112;-78
2023/05/14 00:50:21;;;;;;;5.47;2.00;;;;;;;13.47;100.00;101112.94;5023085;28;20047;-78
2023/05/14 00:52:50;;;;;;;3.92;2.10;;;;;;;13.46;100.00;101106.78;5041087;28;20025;-77
2023/05/14 00:55:18;;;;;;;4.50;2.10;;;;;;;13.44;100.00;101102.63;5033349;28;20060;-77
2023/05/14 00:57:46;;;;;;;6.13;1.88;;;;;;;13.39;100.00;101101.22;5044718;28;20405;-76
2023/05/14 01:00:14;;;;;;;3.83;2.10;;;;;;;13.39;100.00;101098.56;5038294;28;20068;-76
2023/05/14 01:02:42;;;;;;;4.07;2.88;;;;;;;13.35;100.00;101099.84;5041132;28;20115;-77
2023/05/14 01:05:09;;;;;;;3.15;2.50;;;;;;;13.37;100.00;101089.09;5025746;28;20041;-77
2023/05/14 01:07:44;;;;;;;7.78;2.58;;;;;;;13.36;100.00;101092.72;5039717;28;20032;-77
2023/05/14 01:10:20;;;;;;;3.88;2.83;;;;;;;13.37;100.00;101092.59;5039539;28;20052;-77
2023/05/14 01:13:10;;;;;;;3.55;2.75;;;;;;;13.38;100.00;101077.47;5037525;28;20138;-77
2023/05/14 01:15:39;;;;;;;4.95;2.83;;;;;;;13.33;100.00;101085.88;5040582;28;20072;-77
2023/05/14 01:18:11;;;;;;;5.25;3.38;;;;;;;13.28;100.00;101078.34;5038883;28;20033;-77
2023/05/14 01:20:38;;;;;;;6.07;2.78;;;;;;;13.27;100.00;101078.50;5034997;28;20508;-77
2023/05/14 01:23:06;;;;;;;9.60;3.13;;;;;;;13.24;100.00;101069.03;5026083;28;20601;-77
2023/05/14 01:25:34;;;;;;;8.18;3.40;;;;;;;13.24;100.00;101066.38;5023085;28;20036;-77
2023/05/14 01:28:16;;;;;;;4.90;3.22;;;;;;;13.22;100.00;101068.31;5027008;28;20120;-75
2023/05/14 01:30:52;;;;;;;3.08;2.67;;;;;;;13.19;100.00;101065.97;5031319;28;20052;-75
2023/05/14 01:33:23;;;;;;;5.13;3.42;;;;;;;13.15;100.00;101059.28;5046468;28;20041;-78
2023/05/14 01:35:54;;;;;;;5.32;3.50;;;;;;;13.13;100.00;101064.75;5043684;28;20517;-77
2023/05/14 01:38:23;;;;;;;6.80;3.08;;;;;;;13.06;100.00;101068.94;5027363;28;20034;-77
2023/05/14 01:40:52;;;;;;;3.28;2.92;;;;;;;13.06;100.00;101068.94;5043091;28;20488;-77
2023/05/14 01:43:20;;;;;;;5.40;3.33;;;;;;;13.07;100.00;101072.44;5032290;28;20045;-78
2023/05/14 01:45:48;;;;;;;4.13;3.10;;;;;;;13.09;100.00;101068.66;5009347;28;20033;-77
2023/05/14 01:48:16;;;;;;;4.85;3.10;;;;;;;13.07;100.00;101069.78;5016892;28;20394;-80
2023/05/14 01:50:44;;;;;;;4.20;3.20;;;;;;;13.05;100.00;101061.97;5041887;28;20040;-80
2023/05/14 01:53:12;;;;;;;3.33;2.90;;;;;;;12.97;100.00;101067.16;5046437;28;20080;-77
2023/05/14 01:55:40;;;;;;;4.72;3.38;;;;;;;12.97;100.00;101068.00;5038872;28;20540;-77
2023/05/14 01:58:08;;;;;;;3.30;2.80;;;;;;;12.99;100.00;101062.56;5046424;28;20037;-77
2023/05/14 02:00:37;;;;;;;5.00;2.63;;;;;;;13.03;100.00;101063.94;5029073;28;20036;-77
2023/05/14 02:03:04;;;;;;;3.08;2.78;;;;;;;13.00;100.00;101067.72;5015218;28;20459;-77
2023/05/14 02:05:32;;;;;;;3.20;2.90;;;;;;;13.01;100.00;101073.88;5030297;28;20060;-77
2023/05/14 02:08:00;;;;;;;3.85;2.95;;;;;;;12.95;100.00;101062.00;5020109;28;20123;-78
2023/05/14 02:10:28;;;;;;;3.65;2.55;;;;;;;12.95;100.00;101059.34;5045498;28;20096;-77
2023/05/14 02:12:56;;;;;;;5.72;2.92;;;;;;;12.90;100.00;101056.28;5042017;28;20032;-77
2023/05/14 02:15:23;;;;;;;7.22;2.80;;;;;;;12.87;100.00;101045.97;5044843;28;20032;-78
2023/05/14 02:17:51;;;;;;;3.20;2.80;;;;;;;12.83;100.00;101036.63;5049540;28;20041;-77
2023/05/14 02:20:19;;;;;;;3.17;2.88;;;;;;;12.80;100.00;101048.38;5046760;28;20324;-77
2023/05/14 02:22:47;;;;;;;4.72;2.55;;;;;;;12.74;100.00;101046.31;5043984;28;20048;-77
2023/05/14 02:25:15;;;;;;;4.15;2.60;;;;;;;12.74;100.00;101048.97;5046857;28;20453;-77
2023/05/14 02:27:42;;;;;;;5.90;3.28;;;;;;;12.78;100.00;101043.22;5048114;28;20021;-75
2023/05/14 02:30:11;;;;;;;3.42;2.80;;;;;;;12.83;100.00;101028.69;5057224;28;20043;-75
2023/05/14 02:32:39;;;;;;;6.00;2.95;;;;;;;12.78;100.00;101031.75;5044769;28;20654;-77
2023/05/14 02:35:07;;;;;;;5.50;3.00;;;;;;;12.78;100.00;101032.59;5046266;28;20029;-77
2023/05/14 02:37:35;;;;;;;4.40;2.70;;;;;;;12.77;100.00;101038.06;5044953;28;20036;-77
2023/05/14 02:40:03;;;;;;;3.92;2.90;;;;;;;12.81;100.00;101042.09;5046001;28;20083;-77
2023/05/14 02:42:32;;;;;;;4.63;2.58;;;;;;;12.82;100.00;101038.44;5026975;28;20116;-77
2023/05/14 02:45:00;;;;;;;3.25;2.95;;;;;;;12.78;100.00;101024.66;5044649;28;20686;-77
2023/05/14 02:47:27;;;;;;;5.95;3.40;;;;;;;12.72;100.00;101029.69;5048537;28;20025;-77
2023/05/14 02:49:55;;;;;;;3.90;2.95;;;;;;;12.71;100.00;101028.84;5048394;28;20037;-77
2023/05/14 02:52:24;;;;;;;5.72;3.50;;;;;;;12.69;100.00;101022.88;5044238;28;20041;-77
2023/05/14 02:54:52;;;;;;;3.92;2.83;;;;;;;12.66;100.00;101012.53;5039029;28;20029;-77
2023/05/14 02:57:21;;;;;;;4.47;3.25;;;;;;;12.58;100.00;100997.31;5042673;28;20126;-77
2023/05/14 02:59:51;;;;;;;4.50;3.28;;;;;;;12.46;100.00;101004.63;5034998;28;20493;-77
2023/05/14 03:02:19;;;;;;;6.03;3.13;;;;;;;12.47;100.00;101016.91;5025882;28;20033;-80
2023/05/14 03:04:48;;;;;;;3.63;2.92;;;;;;;12.51;100.00;101017.44;5004589;28;20506;-80
2023/05/14 03:07:15;;;;;;;5.53;3.45;;;;;;;12.50;100.00;101019.25;5017751;28;20147;-80
2023/05/14 03:09:44;;;;;;;4.35;3.55;;;;;;;12.49;100.00;101027.34;5046175;28;20725;-80
2023/05/14 03:12:13;;;;;;;6.93;3.10;;;;;;;12.49;100.00;101025.56;5044892;28;20116;-80
2023/05/14 03:14:40;;;;;;;3.33;3.03;;;;;;;12.52;100.00;101022.63;5026718;28;20029;-80
2023/05/14 03:17:08;;;;;;;7.38;3.17;;;;;;;12.43;100.00;100996.13;5024362;28;20451;-80
2023/05/14 03:19:38;;;;;;;5.00;3.58;;;;;;;12.32;100.00;101010.38;5040508;28;20060;-80
2023/05/14 03:22:07;;;;;;;5.20;3.38;;;;;;;12.28;100.00;101015.94;5040769;28;20068;-80
2023/05/14 03:24:39;;;;;;;5.68;3.47;;;;;;;12.30;100.00;101018.47;5027118;28;20505;-79
2023/05/14 03:27:09;;;;;;;5.00;3.65;;;;;;;12.33;100.00;101012.03;5048190;28;20069;-78
2023/05/14 03:29:39;;;;;;;6.10;3.80;;;;;;;12.37;100.00;101014.28;5041213;28;20025;-78
2023/05/14 03:32:08;;;;;;;4.68;3.10;;;;;;;12.37;100.00;101011.63;5030946;28;20028;-77
2023/05/14 03:34:36;;;;;;;6.30;3.40;;;;;;;12.39;100.00;101011.50;5045152;28;20085;-77
2023/05/14 03:37:04;;;;;;;7.38;3.30;;;;;;;12.45;100.00;101013.56;5025718;28;20040;-77
2023/05/14 03:39:33;;;;;;;4.82;3.13;;;;;;;12.44;100.00;101006.56;5044396;28;20086;-77
2023/05/14 03:41:59;;;;;;;6.13;3.55;;;;;;;12.48;100.00;101005.31;5056502;28;20032;-77
2023/05/14 03:44:28;;;;;;;5.10;3.28;;;;;;;12.45;100.00;100996.81;5041815;28;20094;-77
2023/05/14 03:46:56;;;;;;;3.42;2.92;;;;;;;12.46;100.00;100993.16;5033058;28;20024;-77
2023/05/14 03:49:24;;;;;;;5.50;2.90;;;;;;;12.47;100.00;100984.25;5038353;28;20036;-77
2023/05/14 03:51:51;;;;;;;6.20;3.40;;;;;;;12.44;100.00;100973.94;5046186;28;20123;-77
2023/05/14 03:54:19;;;;;;;5.63;3.17;;;;;;;12.39;100.00;100977.84;5013480;28;20358;-77
2023/05/14 03:56:47;;;;;;;8.20;3.13;;;;;;;12.42;100.00;100976.75;5038070;28;20037;-75
2023/05/14 03:59:15;;;;;;;6.15;2.53;;;;;;;12.36;100.00;100967.53;5028473;28;20394;-75
2023/05/14 04:01:43;;;;;;;6.68;2.90;;;;;;;12.37;100.00;100974.53;5045607;28;20029;-77
2023/05/14 04:04:11;;;;;;;3.40;2.85;;;;;;;12.36;100.00;100964.06;5023113;28;20041;-77
2023/05/14 04:06:38;;;;;;;5.15;2.60;;;;;;;12.36;100.00;100970.19;5046945;28;20079;-75
2023/05/14 04:09:07;;;;;;;3.90;2.88;;;;;;;12.37;100.00;100976.31;5037147;28;20333;-75
2023/05/14 04:11:37;;;;;;;3.80;2.67;;;;;;;12.37;100.00;100974.53;5048901;28;20029;-77
2023/05/14 04:14:06;;;;;;;5.90;2.88;;;;;;;12.34;100.00;100971.31;5040961;28;20036;-77
2023/05/14 04:16:33;;;;;;;3.38;2.58;;;;;;;12.36;100.00;100967.53;5042506;28;20447;-77
2023/05/14 04:19:06;;;;;;;5.05;2.85;;;;;;;12.33;100.00;100956.38;5044126;28;20045;-77
2023/05/14 04:21:34;;;;;;;8.10;2.70;;;;;;;12.32;100.00;100944.09;5021882;28;20401;-77
2023/05/14 04:24:02;;;;;;;9.10;2.95;;;;;;;12.30;100.00;100941.59;5043232;28;20043;-77
2023/05/14 04:26:30;;;;;;;3.75;2.38;;;;;;;12.33;100.00;100943.97;5044761;28;20112;-77
2023/05/14 04:29:01;;;;;;;3.53;2.40;;;;;;;12.36;100.00;100948.97;5045131;28;20029;-77
2023/05/14 04:31:31;;;;;;;5.68;2.42;;;;;;;12.39;100.00;100945.22;5036691;28;20043;-77
2023/05/14 04:34:01;;;;;;;4.80;2.47;;;;;;;12.36;100.00;100938.38;5028321;28;20045;-77
2023/05/14 04:36:31;;;;;;;3.67;2.28;;;;;;;12.37;100.00;100944.50;5043253;28;20393;-77
2023/05/14 04:39:00;;;;;;;3.65;1.90;;;;;;;12.36;100.00;100948.16;5025879;28;20043;-77
2023/05/14 04:41:30;;;;;;;4.32;2.63;;;;;;;12.38;100.00;100946.16;5038721;28;20166;-77
2023/05/14 04:44:00;;;;;;;3.35;2.42;;;;;;;12.41;100.00;100943.22;5031146;28;20036;-77
2023/05/14 04:46:28;;;;;;;4.88;2.60;;;;;;;12.33;100.00;100943.97;5022325;28;20032;-76
2023/05/14 04:48:57;;;;;;;3.30;2.42;;;;;;;12.33;100.00;100941.31;5022876;28;20072;-76
2023/05/14 04:51:25;;;;;;;4.65;2.70;;;;;;;12.30;100.00;100952.19;5046386;28;20029;-77
2023/05/14 04:53:54;;;;;;;4.38;2.78;;;;;;;12.31;100.00;100950.38;5020137;28;20123;-76
2023/05/14 04:56:25;;;;;;;3.45;2.83;;;;;;;12.34;100.00;100942.16;5046449;28;20052;-77
2023/05/14 04:58:55;;;;;;;3.92;2.67;;;;;;;12.33;100.00;100943.97;5029437;28;20512;-77
2023/05/14 05:01:24;;;;;;;8.13;3.90;;;;;;;12.32;100.00;100936.16;5025482;28;20033;-77
2023/05/14 05:03:56;;;;;;;6.97;3.40;;;;;;;12.28;100.00;100940.88;5044295;28;20083;-77
2023/05/14 05:06:26;;;;;;;4.22;3.28;;;;;;;12.27;100.00;100942.72;5046340;28;20533;-77
2023/05/14 05:08:56;;;;;;;5.13;2.85;;;;;;;12.26;100.00;100941.03;5043950;28;20366;-77
2023/05/14 05:11:24;;;;;;;4.07;2.85;;;;;;;12.24;100.00;100928.91;5027084;28;20109;-77
2023/05/14 05:13:52;;;;;;;4.30;3.58;;;;;;;12.19;100.00;100918.75;5040457;28;20082;-76
2023/05/14 05:16:22;;;;;;;5.90;2.72;;;;;;;12.24;100.00;100911.22;5043426;28;20029;-77
2023/05/14 05:18:52;;;;;;;6.60;3.72;;;;;;;12.21;100.00;100906.19;5028215;28;20113;-77
2023/05/14 05:21:20;;;;;;;5.05;3.70;;;;;;;12.17;100.00;100898.69;5047153;28;20087;-77
2023/05/14 05:23:48;;;;;;;8.90;4.55;;;;;;;12.14;100.00;100905.09;5045374;28;20029;-77
2023/05/14 05:26:18;;;;;;;7.13;4.10;;;;;;;12.22;100.00;100905.22;5042205;28;20039;-77
2023/05/14 05:28:48;;;;;;;8.00;4.07;;;;;;;12.25;100.00;100904.91;5042386;28;20431;-77
2023/05/14 05:31:17;;;;;;;6.20;4.00;;;;;;;12.26;100.00;100913.72;5043921;28;20033;-77
2023/05/14 05:33:45;;;;;;;6.32;3.97;;;;;;;12.21;100.00;100910.66;5044867;28;20040;-77
2023/05/14 05:36:13;;;;;;;6.63;3.88;;;;;;;12.26;100.00;100919.00;5042022;28;20388;-77
2023/05/14 05:38:41;;;;;;;4.30;3.90;;;;;;;12.22;100.00;100917.63;5025510;28;20056;-77
2023/05/14 05:41:09;;;;;;;6.25;3.42;;;;;;;12.23;100.00;100914.81;5022325;28;20033;-77
2023/05/14 05:43:37;;;;;;;6.65;5.22;;;;;;;12.23;100.00;100914.81;4969811;28;20033;-77
2023/05/14 05:46:05;;;;;;;4.07;3.67;;;;;;;12.27;100.00;100904.78;5049048;28;20032;-77
2023/05/14 05:48:33;;;;;;;4.45;3.58;;;;;;;12.29;100.00;100910.78;5043879;28;20017;-77
2023/05/14 05:51:01;;;;;;;5.28;3.97;;;;;;;12.35;100.00;100919.97;5049194;28;20093;-77
2023/05/14 05:53:28;;;;;;;5.28;3.63;;;;;;;12.37;100.00;100921.50;5038185;28;20033;-77
2023/05/14 05:55:56;;;;;;;4.07;3.65;;;;;;;12.41;100.00;100922.03;5045539;28;20049;-77
2023/05/14 05:58:24;;;;;;;6.95;3.38;;;;;;;12.40;100.00;100920.38;5047158;28;20033;-77
2023/05/14 06:00:52;;;;;;;6.85;3.67;;;;;;;12.45;100.00;100914.63;5026272;28;20029;-76
2023/05/14 06:03:20;;;;;;;5.80;3.47;;;;;;;12.47;100.00;100915.31;5040613;28;20029;-77
2023/05/14 06:05:51;;;;;;;5.20;3.20;;;;;;;12.58;100.00;100914.31;5031700;28;20401;-77
2023/05/14 06:08:21;;;;;;;5.25;3.33;;;;;;;12.54;100.00;100911.09;5051576;28;20115;-75
2023/05/14 06:10:49;;;;;;;9.07;3.60;;;;;;;12.52;100.00;100911.25;5042972;28;20032;-75
2023/05/14 06:13:17;;;;;;;4.35;3.10;;;;;;;12.50;100.00;100912.38;5041211;28;20040;-77
2023/05/14 06:15:45;;;;;;;9.13;2.92;;;;;;;12.37;100.00;100910.91;5045753;28;20070;-77
2023/05/14 06:18:13;;;;;;;6.72;3.10;;;;;;;12.33;100.00;100913.94;5040283;28;20037;-77
2023/05/14 06:20:40;;;;;;;4.53;2.03;;;;;;;12.26;100.00;100911.88;5046362;28;20039;-77
2023/05/14 06:23:10;;;;;;;4.10;2.30;;;;;;;12.23;100.00;100906.88;5048445;28;20036;-77
2023/05/14 06:25:39;;;;;;;4.68;2.20;;;;;;;12.23;100.00;100909.53;5033101;28;20444;-77
2023/05/14 06:28:07;;;;;;;6.40;2.00;;;;;;;12.26;100.00;100911.88;5044500;28;20039;-77
2023/05/14 06:30:35;;;;;;;4.32;1.98;;;;;;;12.32;100.00;100909.66;5035284;28;20168;-77
2023/05/14 06:33:03;;;;;;;3.45;1.70;;;;;;;12.28;100.00;100906.44;5047456;28;20044;-77
2023/05/14 06:35:33;;;;;;;2.08;1.45;;;;;;;12.28;100.00;100904.63;5043292;28;20037;-77
2023/05/14 06:38:03;;;;;;;2.83;1.80;;;;;;;12.30;100.00;100904.50;5042538;28;20437;-77
2023/05/14 06:40:33;;;;;;;2.75;1.90;;;;;;;12.35;100.00;100902.25;5049868;28;20060;-78
2023/05/14 06:43:01;;;;;;;3.30;1.92;;;;;;;12.44;100.00;100899.72;5031601;28;20120;-77
2023/05/14 06:45:29;;;;;;;2.70;1.67;;;;;;;12.45;100.00;100902.22;5037782;28;20026;-77
2023/05/14 06:47:59;;;;;;;4.63;2.28;;;;;;;12.44;100.00;100910.31;5058962;28;20108;-78
2023/05/14 06:50:29;;;;;;;3.72;2.00;;;;;;;12.44;100.00;100908.47;5045314;28;20052;-77
2023/05/14 06:52:59;;;;;;;3.05;1.70;;;;;;;12.42;100.00;100907.81;5038661;28;20087;-78
2023/05/14 06:55:29;;;;;;;4.53;2.03;;;;;;;12.47;100.00;100904.72;5039612;28;20057;-78
2023/05/14 06:57:59;;;;;;;3.13;1.80;;;;;;;12.35;100.00;100901.41;5045482;28;20060;-78
2023/05/14 07:00:30;;;;;;;4.82;2.00;;;;;;;12.27;100.00;100899.47;5045751;28;20041;-79
2023/05/14 07:03:00;;;;;;;6.10;2.22;;;;;;;12.28;100.00;100904.63;5029621;28;20376;-78
2023/05/14 07:05:29;;;;;;;5.47;1.92;;;;;;;12.17;100.00;100902.16;5048588;28;20036;-79
2023/05/14 07:07:57;;;;;;;5.88;1.83;;;;;;;12.12;100.00;100902.56;5049684;28;20473;-78
2023/05/14 07:10:25;;;;;;;2.20;1.67;;;;;;;12.13;100.00;100896.31;5027300;28;20040;-79
2023/05/14 07:12:53;;;;;;;4.65;1.52;;;;;;;12.07;100.00;100901.31;5043154;28;20484;-79
2023/05/14 07:15:20;;;;;;;7.15;1.75;;;;;;;12.06;100.00;100900.47;5030811;28;20041;-78
2023/05/14 07:17:48;;;;;;;3.78;1.50;;;;;;;12.06;100.00;100904.91;5044876;28;20060;-78
2023/05/14 07:20:16;;;;;;;2.95;1.40;;;;;;;12.08;100.00;100906.50;5047602;28;20421;-79
2023/05/14 07:22:44;;;;;;;3.38;1.65;;;;;;;12.04;100.00;100897.97;5053404;28;20032;-79
2023/05/14 07:25:13;;;;;;;4.15;1.42;;;;;;;12.07;100.00;100903.97;5047190;28;20057;-78
2023/05/14 07:27:41;;;;;;;4.15;1.27;;;;;;;12.07;100.00;100907.44;5035735;28;20041;-79
2023/05/14 07:30:09;;;;;;;3.00;1.20;;;;;;;12.06;100.00;100900.47;5040619;28;20032;-79
2023/05/14 07:32:37;;;;;;;5.68;1.58;;;;;;;12.04;100.00;100899.75;5039355;28;20033;-79
2023/05/14 07:35:05;;;;;;;4.40;1.48;;;;;;;12.12;100.00;100891.97;5045537;28;20033;-78
2023/05/14 07:37:33;;;;;;;6.20;1.20;;;;;;;12.12;100.00;100894.63;5023371;28;20141;-79
2023/05/14 07:40:03;;;;;;;2.30;1.58;;;;;;;12.19;100.00;100902.00;5039696;28;20037;-78
2023/05/14 07:42:33;;;;;;;4.05;1.52;;;;;;;12.22;100.00;100899.06;5044695;28;20036;-78
2023/05/14 07:45:01;;;;;;;1.85;1.60;;;;;;;12.20;100.00;100909.81;5047666;28;20047;-79
2023/05/14 07:47:29;;;;;;;1.98;1.45;;;;;;;12.20;100.00;100909.00;5027427;28;20053;-79
2023/05/14 07:49:57;;;;;;;3.97;1.58;;;;;;;12.24;100.00;100910.38;5044276;28;20029;-79
2023/05/14 07:52:25;;;;;;;5.22;1.60;;;;;;;12.25;100.00;100910.22;5036521;28;20065;-79
2023/05/14 07:54:53;;;;;;;2.22;1.50;;;;;;;12.25;100.00;100910.22;5025773;28;20051;-79
2023/05/14 07:57:21;;;;;;;4.13;1.52;;;;;;;12.31;100.00;100905.31;5042784;28;20420;-79
2023/05/14 07:59:49;;;;;;;3.58;1.73;;;;;;;12.33;100.00;100906.00;5039835;28;20163;-79
2023/05/14 08:02:17;;;;;;;3.00;1.50;;;;;;;12.37;100.00;100899.44;5048071;28;20037;-79
2023/05/14 08:04:45;;;;;;;2.95;1.58;;;;;;;12.39;100.00;100902.81;5029190;28;20032;-79
2023/05/14 08:07:13;;;;;;;2.90;1.42;;;;;;;12.49;100.00;100903.59;5046704;28;20032;-79
2023/05/14 08:09:40;;;;;;;4.20;1.50;;;;;;;12.54;100.00;100905.78;5039075;28;20056;-79
2023/05/14 08:12:08;;;;;;;3.60;1.75;;;;;;;12.62;100.00;100908.56;5041572;28;20074;-79
2023/05/14 08:14:36;;;;;;;3.53;1.50;;;;;;;12.65;100.00;100905.63;5041059;28;20115;-79
2023/05/14 08:17:04;;;;;;;1.73;1.17;;;;;;;12.69;100.00;100907.97;5031029;28;20083;-76
2023/05/14 08:19:33;;;;;;;3.05;1.63;;;;;;;12.71;100.00;100904.19;5042312;28;20091;-76
2023/05/14 08:22:00;;;;;;;2.75;1.38;;;;;;;12.80;100.00;100902.47;5043782;28;20047;-79
2023/05/14 08:24:28;;;;;;;2.33;1.40;;;;;;;12.76;100.00;100890.47;5044889;28;20024;-79
2023/05/14 08:26:56;;;;;;;2.72;1.20;;;;;;;12.77;100.00;100892.16;5029014;28;20056;-78
2023/05/14 08:29:24;;;;;;;2.15;0.93;;;;;;;12.80;100.00;100896.31;5041942;28;20040;-77
2023/05/14 08:31:54;;;;;;;2.85;1.00;;;;;;;12.80;100.00;100891.88;5041743;28;20033;-76
2023/05/14 08:34:24;;;;;;;2.05;1.40;;;;;;;12.78;100.00;100899.97;5043810;28;20039;-75
2023/05/14 08:36:54;;;;;;;2.42;1.30;;;;;;;12.81;100.00;100895.34;5039922;28;20078;-79
2023/05/14 08:39:24;;;;;;;3.10;1.20;;;;;;;12.82;100.00;100897.03;5041237;28;20090;-79
2023/05/14 08:41:56;;;;;;;1.10;1.00;;;;;;;12.85;100.00;100900.19;5045406;28;20035;-79
2023/05/14 08:45:02;;;;;;;3.05;1.08;;;;;;;12.90;100.00;100899.75;5036510;28;20504;-79
2023/05/14 08:47:33;;;;;;;1.90;1.15;;;;;;;12.92;100.00;100894.28;5029793;28;20590;-76
2023/05/14 08:50:07;;;;;;;2.45;1.00;;;;;;;12.95;100.00;100896.69;5043568;28;20398;-76
2023/05/14 08:52:37;;;;;;;1.17;0.77;;;;;;;12.98;100.00;100896.38;5025518;28;20479;-78
2023/05/14 08:55:08;;;;;;;1.52;1.05;;;;;;;12.97;100.00;100900.84;5044461;28;20040;-78
2023/05/14 08:57:38;;;;;;;1.83;0.80;;;;;;;12.97;100.00;100898.19;5061592;28;20040;-79
2023/05/14 09:00:12;;;;;;;1.10;0.80;;;;;;;12.97;100.00;100895.53;5039176;28;20075;-78
2023/05/14 09:02:44;;;;;;;0.95;0.85;;;;;;;13.05;100.00;100899.25;5045702;28;20025;-79
2023/05/14 09:05:15;;;;;;;0.80;0.80;;;;;;;13.18;100.00;100893.59;5028882;28;20040;-79
2023/05/14 09:07:45;;;;;;;1.30;0.73;;;;;;;13.24;100.00;100891.16;5052901;28;20489;-79
2023/05/14 09:10:17;;;;;;;1.55;0.90;;;;;;;13.34;100.00;100884.94;5026071;28;20591;-78
2023/05/14 09:12:46;;;;;;;1.00;0.70;;;;;;;13.40;100.00;100890.50;5039335;28;20548;-79
2023/05/14 09:15:16;;;;;;;1.00;0.60;;;;;;;13.40;100.00;100887.84;5031091;28;20870;-79
2023/05/14 09:17:47;;;;;;;2.10;1.02;;;;;;;13.31;100.00;100899.38;5040682;28;20466;-79
2023/05/14 09:20:16;;;;;;;1.75;0.57;;;;;;;13.26;100.00;100891.84;5052017;28;20032;-79
2023/05/14 09:22:44;;;;;;;0.82;0.50;;;;;;;13.28;100.00;100895.19;5044746;28;20087;-78
2023/05/14 09:25:12;;;;;;;0.82;0.60;;;;;;;13.31;100.00;100891.41;5044734;28;20045;-78
2023/05/14 09:27:39;;;;;;;2.72;0.50;;;;;;;13.31;100.00;100896.72;5041364;28;20025;-78
2023/05/14 09:30:10;;;;;;;0.43;0.43;;;;;;;13.30;100.00;100886.25;5047114;28;20052;-78
2023/05/14 09:32:49;;;;;;;0.95;0.30;;;;;;;13.22;100.00;100893.13;5033940;28;20032;-78
2023/05/14 09:35:23;;;;;;;0.68;0.30;;;;;;;13.12;100.00;100890.53;5044625;28;20040;-79
2023/05/14 09:37:55;;;;;;;0.57;0.22;;;;;;;13.05;100.00;100904.56;5038429;28;20481;-76
2023/05/14 09:40:24;;;;;;;0.75;0.25;;;;;;;12.94;100.00;100903.78;5039649;28;20043;-75
2023/05/14 09:42:53;;;;;;;0.20;0.20;;;;;;;12.73;100.00;100898.72;5059019;28;20036;-78
2023/05/14 09:45:21;;;;;;;0.30;0.20;;;;;;;12.64;100.00;100911.06;5044353;28;20075;-78
2023/05/14 09:47:49;;;;;;;0.20;0.10;;;;;;;12.64;100.00;100898.66;5042499;28;20481;-78
2023/05/14 09:50:17;;;;;;;0.25;0.20;;;;;;;12.61;100.00;100900.75;5037512;28;20040;-78
2023/05/14 09:52:47;;;;;;;1.45;0.20;;;;;;;12.43;100.00;100911.28;5041644;28;20901;-78
2023/05/14 09:55:17;;;;;;;2.40;0.38;;;;;;;12.28;100.00;100907.28;5037679;28;20056;-78
2023/05/14 09:57:46;;;;;;;0.40;0.20;;;;;;;12.19;100.00;100918.75;5037711;28;20048;-78
2023/05/14 10:00:15;;;;;;;0.20;0.20;;;;;;;12.10;100.00;100914.31;5040829;28;20032;-78
2023/05/14 10:02:45;;;;;;;0.65;0.20;;;;;;;12.01;100.00;100910.66;5024907;28;20781;-78
2023/05/14 10:05:14;;;;;;;0.75;0.22;;;;;;;11.95;100.00;100916.53;5038752;28;20094;-78
2023/05/14 10:07:46;;;;;;;0.20;0.20;;;;;;;12.10;100.00;100919.59;5036251;28;20029;-78
2023/05/14 10:10:18;;;;;;;3.92;0.25;;;;;;;12.18;100.00;100924.19;5035784;28;20037;-78
2023/05/14 10:12:53;;;;;;;0.25;0.25;;;;;;;12.27;100.00;100929.47;5038302;28;20507;-78
2023/05/14 10:15:29;;;;;;;0.30;0.25;;;;;;;12.31;100.00;100924.69;5042079;28;20139;-78
2023/05/14 10:18:07;;;;;;;0.45;0.17;;;;;;;12.18;100.00;100932.97;5027200;28;20048;-77
2023/05/14 10:20:38;;;;;;;0.52;0.10;;;;;;;12.13;100.00;100932.56;5036147;28;20063;-78
2023/05/14 10:23:08;;;;;;;1.88;0.70;;;;;;;12.07;100.00;100936.56;5029136;28;20036;-78
2023/05/14 10:25:38;;;;;;;1.50;0.25;;;;;;;12.07;100.00;100949.00;5041296;28;20044;-77
2023/05/14 10:28:08;;;;;;;1.20;0.40;;;;;;;11.97;100.00;100941.06;5038733;28;20537;-78
2023/05/14 10:30:45;;;;;;;2.08;0.57;;;;;;;12.10;100.00;100946.94;5042121;28;20037;-78
2023/05/14 10:33:15;;;;;;;2.88;0.52;;;;;;;12.05;100.00;100941.19;5029419;28;20041;-76
2023/05/14 10:36:14;;;;;;;2.38;0.57;;;;;;;12.07;100.00;100951.66;5047190;28;20029;-78
2023/05/14 10:38:44;;;;;;;2.30;0.50;;;;;;;11.83;100.00;100967.03;5035535;28;20030;-78
2023/05/14 10:41:16;;;;;;;0.95;0.68;;;;;;;11.61;100.00;100960.19;5045312;28;20039;-78
2023/05/14 10:43:46;;;;;;;3.22;0.60;;;;;;;11.41;100.00;100958.34;5043325;28;20082;-78
2023/05/14 10:46:14;;;;;;;3.78;0.60;;;;;;;11.40;100.00;100964.59;5042383;28;20032;-77
2023/05/14 10:48:44;;;;;;;9.18;1.13;;;;;;;11.58;100.00;100971.06;5046242;28;20033;-78
2023/05/14 10:51:12;;;;;;;0.95;0.60;;;;;;;11.69;100.00;100975.38;5039008;28;20044;-78
2023/05/14 10:53:41;;;;;;;4.07;0.68;;;;;;;11.74;100.00;100963.38;5042709;28;20029;-77
2023/05/14 10:56:11;;;;;;;2.95;0.70;;;;;;;11.92;100.00;100970.63;4985387;28;20053;-77
2023/05/14 10:58:42;;;;;;;2.50;0.90;;;;;;;12.03;100.00;100967.84;5043822;28;20060;-77
2023/05/14 11:01:11;;;;;;;3.97;0.90;;;;;;;12.17;100.00;100962.28;5047779;28;20047;-77
2023/05/14 11:03:41;;;;;;;5.45;0.85;;;;;;;12.31;100.00;100971.59;5012084;28;20045;-77
2023/05/14 11:06:10;;;;;;;3.55;0.80;;;;;;;12.27;100.00;100960.44;5043519;28;20029;-77
2023/05/14 11:08:39;;;;;;;5.03;0.80;;;;;;;12.32;100.00;100963.50;5044803;28;20098;-77
2023/05/14 11:11:08;;;;;;;6.68;1.10;;;;;;;12.35;100.00;100965.88;5050953;28;20033;-77
2023/05/14 11:13:36;;;;;;;9.60;1.15;;;;;;;12.41;100.00;100961.78;5058335;28;20095;-77
2023/05/14 11:16:05;;;;;;;4.55;0.90;;;;;;;12.44;100.00;100971.28;5043349;28;20055;-77
2023/05/14 11:18:40;;;;;;;3.78;1.00;;;;;;;12.54;100.00;100964.13;5042737;28;20116;-77
2023/05/14 11:21:10;;;;;;;3.78;1.52;;;;;;;12.61;100.00;100975.81;5045019;28;20051;-76
2023/05/14 11:23:39;;;;;;;6.63;0.98;;;;;;;12.62;100.00;100966.91;5039401;28;20033;-76
2023/05/14 11:26:07;;;;;;;5.55;1.13;;;;;;;12.62;100.00;100974.00;5021168;28;20484;-77